Sonie — WDD2812 — position and weather

sailwx.info

Track history (hours):
 
Tides and Currents Weather Stations Pressure Air Temp Water Temp Dewpoint Dewpoint Depression Visibility Wind Speed Wind Dir Waves Ship Positions

Sonie

Owner: TUG SONIE, LLC, NEW CASTLE, DE. More information available from US FCC via Universal Licensing System and Coast Guard Vessel Documentation Center.

Last reported at 2018-May-22 19:30 UTC. Time now 2018-May-22 19:40 UTC.
Position N 39°51' W 075°16'.

Length 26 m; draft 3.5 m.

Type: Tug. MMSI: 367120230.

Date/timePositionNaut miles runAvg speedWind from/ knotsBaromVisibWave heightAir tempDewpointWater temp
2018-May-22 19:30N 39°51' W 075°16'1 1.9
2018-May-22 19:00N 39°51' W 075°17'4 7.2
2018-May-22 18:30N 39°52' W 075°13'2 3.7
2018-May-22 18:00N 39°53' W 075°11'0 0.0
2018-May-22 17:31N 39°53' W 075°11'0 0.0
2018-May-22 17:00N 39°53' W 075°11'0 0.0
2018-May-22 16:30N 39°53' W 075°11'0 0.0
2018-May-22 16:00N 39°53' W 075°11'0 0.0
2018-May-22 15:30N 39°53' W 075°11'0 0.0
2018-May-22 15:00N 39°53' W 075°11'0 0.0
2018-May-22 14:30N 39°53' W 075°11'0 0.0
2018-May-22 14:00N 39°53' W 075°11'3 6.7
2018-May-22 13:30N 39°51' W 075°15'1 1.7
2018-May-22 13:00N 39°51' W 075°16'0 0.0
2018-May-22 12:30N 39°51' W 075°16'0 0.0
2018-May-22 12:00N 39°51' W 075°16'0 0.0
2018-May-22 11:30N 39°51' W 075°16'0 0.0
2018-May-22 11:00N 39°51' W 075°16'0 0.0
2018-May-22 10:30N 39°51' W 075°16'0 0.0
2018-May-22 10:00N 39°51' W 075°16'0 0.0
2018-May-22 09:30N 39°51' W 075°16'0 0.0
2018-May-22 09:00N 39°51' W 075°16'0 0.0
2018-May-22 08:30N 39°51' W 075°16'4 7.1
2018-May-22 08:00N 39°53' W 075°12'3 5.6
2018-May-22 07:30N 39°54' W 075°08'0 0.4
2018-May-22 07:01N 39°54' W 075°08'2 4.0
2018-May-22 06:30N 39°53' W 075°10'1 1.0
2018-May-22 06:00N 39°53' W 075°11'0 0.0
2018-May-22 05:30N 39°53' W 075°11'0 0.0
2018-May-22 05:00N 39°53' W 075°11'0 0.0
2018-May-22 04:30N 39°53' W 075°11'0 0.0
2018-May-22 04:00N 39°53' W 075°11'0 0.0
2018-May-22 03:30N 39°53' W 075°11'0 0.0
2018-May-22 03:00N 39°53' W 075°11'0 0.0
2018-May-22 02:30N 39°53' W 075°11'2 3.7
2018-May-22 02:00N 39°52' W 075°13'0 0.1
2018-May-22 01:30N 39°52' W 075°13'0 0.1
2018-May-22 01:00N 39°52' W 075°13'1 1.4
2018-May-22 00:30N 39°53' W 075°12'1 2.2
2018-May-22 00:00N 39°53' W 075°11'0 0.0
2018-May-21 23:30N 39°53' W 075°11'0 0.0
2018-May-21 23:00N 39°53' W 075°11'0 0.0
2018-May-21 22:29N 39°53' W 075°11'1 2.4
2018-May-21 22:00N 39°53' W 075°10'0 0.0
2018-May-21 21:30N 39°53' W 075°10'0 0.0
2018-May-21 21:00N 39°53' W 075°10'0 0.6
2018-May-21 20:31N 39°53' W 075°10'2 3.9
2018-May-21 20:00N 39°52' W 075°12'1 2.3
2018-May-21 19:30N 39°53' W 075°11'0 0.0
2018-May-21 19:00N 39°53' W 075°11'2 4.3
2018-May-21 18:30N 39°53' W 075°08'2 3.2
2018-May-21 18:00N 39°55' W 075°08'1 2.1
2018-May-21 17:30N 39°54' W 075°08'3 5.0
2018-May-21 17:00N 39°53' W 075°11'0 0.0
2018-May-21 16:31N 39°53' W 075°11'0 0.0
2018-May-21 16:01N 39°53' W 075°11'0 0.0
2018-May-21 15:30N 39°53' W 075°11'0 0.0
2018-May-21 15:01N 39°53' W 075°11'0 0.0
2018-May-21 14:30N 39°53' W 075°11'0 0.0
2018-May-21 14:00N 39°53' W 075°11'2 3.5
2018-May-21 13:30N 39°52' W 075°13'3 5.6
2018-May-21 13:00N 39°51' W 075°16'0 0.0
2018-May-21 12:30N 39°51' W 075°16'0 0.3
2018-May-21 12:00N 39°51' W 075°16'0 0.3
2018-May-21 11:30N 39°51' W 075°16'0 0.7
2018-May-21 11:00N 39°51' W 075°16'0 0.0
2018-May-21 10:30N 39°51' W 075°16'0 0.0
2018-May-21 10:00N 39°51' W 075°16'0 0.0
2018-May-21 09:30N 39°51' W 075°16'0 0.0
2018-May-21 09:00N 39°51' W 075°16'0 0.0
2018-May-21 08:30N 39°51' W 075°16'0 0.0
2018-May-21 08:00N 39°51' W 075°16'0 0.0
2018-May-21 07:30N 39°51' W 075°16'0 0.0
2018-May-21 07:00N 39°51' W 075°16'0 0.0
2018-May-21 06:30N 39°51' W 075°16'0 0.0
2018-May-21 06:00N 39°51' W 075°16'0 0.0
2018-May-21 05:30N 39°51' W 075°16'0 0.0
2018-May-21 05:00N 39°51' W 075°16'0 0.0
2018-May-21 04:31N 39°51' W 075°16'0 0.0
2018-May-21 04:00N 39°51' W 075°16'1 2.4
2018-May-21 03:30N 39°51' W 075°14'0 1.0
2018-May-21 03:01N 39°51' W 075°14'1 2.9
2018-May-21 02:30N 39°52' W 075°12'1 2.6
2018-May-21 02:00N 39°53' W 075°11'0 0.1
2018-May-21 01:30N 39°53' W 075°11'0 0.0
2018-May-21 01:00N 39°53' W 075°11'0 0.0
2018-May-21 00:30N 39°53' W 075°11'0 0.0
2018-May-21 00:01N 39°53' W 075°11'0 0.0
2018-May-20 23:31N 39°53' W 075°11'0 0.0
2018-May-20 23:00N 39°53' W 075°11'2 3.9
2018-May-20 22:30N 39°52' W 075°13'0 0.0
2018-May-20 22:00N 39°52' W 075°13'0 0.0
2018-May-20 21:30N 39°52' W 075°13'0 0.7
2018-May-20 21:00N 39°52' W 075°13'3 5.2
2018-May-20 20:30N 39°51' W 075°16'2 4.0
2018-May-20 20:00N 39°52' W 075°13'2 4.5
2018-May-20 19:31N 39°53' W 075°11'0 0.0
2018-May-20 19:01N 39°53' W 075°11'0 0.0
2018-May-20 18:30N 39°53' W 075°11'0 0.0
2018-May-20 18:01N 39°53' W 075°11'0 0.0
2018-May-20 17:30N 39°53' W 075°11'0 0.0
2018-May-20 17:00N 39°53' W 075°11'0 0.0
2018-May-20 16:30N 39°53' W 075°11'2 4.8
2018-May-20 16:00N 39°52' W 075°13'0 0.8
2018-May-20 15:30N 39°51' W 075°14'0 0.0
2018-May-20 15:00N 39°51' W 075°14'2 4.4
2018-May-20 14:30N 39°51' W 075°17'5 9.4
2018-May-20 14:00N 39°49' W 075°23'4 8.2
2018-May-20 13:30N 39°47' W 075°27'5 9.6
2018-May-20 13:00N 39°43' W 075°30'1 1.1
2018-May-20 12:31N 39°43' W 075°31'0 0.0
2018-May-20 12:01N 39°43' W 075°31'0 0.0
2018-May-20 11:30N 39°43' W 075°31'0 0.0
2018-May-20 11:01N 39°43' W 075°31'0 0.0
2018-May-20 10:31N 39°43' W 075°31'0 0.0
2018-May-20 10:00N 39°43' W 075°31'0 0.0
2018-May-20 09:30N 39°43' W 075°31'0 0.0
2018-May-20 09:00N 39°43' W 075°31'0 0.0
2018-May-20 08:30N 39°43' W 075°31'0 0.0
2018-May-20 08:01N 39°43' W 075°31'0 0.0
2018-May-20 07:31N 39°43' W 075°31'0 0.0
2018-May-20 07:01N 39°43' W 075°31'0 0.0
2018-May-20 06:30N 39°43' W 075°31'0 0.0
2018-May-20 06:01N 39°43' W 075°31'0 0.0
2018-May-20 05:31N 39°43' W 075°31'0 0.0
2018-May-20 05:00N 39°43' W 075°31'0 0.0
2018-May-20 04:30N 39°43' W 075°31'0 0.0
2018-May-20 04:00N 39°43' W 075°31'0 0.0
2018-May-20 03:30N 39°43' W 075°31'0 0.0
2018-May-20 03:01N 39°43' W 075°31'0 0.0
2018-May-20 02:31N 39°43' W 075°31'0 0.0
2018-May-20 02:01N 39°43' W 075°31'0 0.0
2018-May-20 01:31N 39°43' W 075°31'0 0.0
2018-May-20 01:01N 39°43' W 075°31'0 0.0
2018-May-20 00:30N 39°43' W 075°31'0 0.0
2018-May-20 00:00N 39°43' W 075°31'0 0.0
2018-May-19 23:31N 39°43' W 075°31'0 0.4
2018-May-19 23:00N 39°43' W 075°31'0 0.0
2018-May-19 22:31N 39°43' W 075°31'0 0.0
2018-May-19 22:01N 39°43' W 075°31'0 0.2
2018-May-19 21:30N 39°43' W 075°31'2 4.6
2018-May-19 21:01N 39°41' W 075°31'2 3.6
2018-May-19 20:30N 39°42' W 075°31'1 1.2
2018-May-19 20:01N 39°43' W 075°31'0 0.0
2018-May-19 19:30N 39°43' W 075°31'0 0.0
2018-May-19 19:01N 39°43' W 075°31'0 0.0
2018-May-19 18:30N 39°43' W 075°31'0 0.0
2018-May-19 18:00N 39°43' W 075°31'0 0.0
2018-May-19 17:30N 39°43' W 075°31'0 0.0
2018-May-19 17:00N 39°43' W 075°31'0 0.0
2018-May-19 16:31N 39°43' W 075°31'0 0.0
2018-May-19 16:00N 39°43' W 075°31'0 0.0
2018-May-19 15:30N 39°43' W 075°31'0 0.0
2018-May-19 15:00N 39°43' W 075°31'0 0.0
2018-May-19 14:30N 39°43' W 075°31'0 0.0
2018-May-19 14:01N 39°43' W 075°31'0 0.0
2018-May-19 13:31N 39°43' W 075°31'0 0.0
2018-May-19 13:00N 39°43' W 075°31'0 0.0
2018-May-19 12:31N 39°43' W 075°31'0 0.0
2018-May-19 12:00N 39°43' W 075°31'0 0.0
2018-May-19 11:30N 39°43' W 075°31'0 0.0
2018-May-19 11:00N 39°43' W 075°31'0 0.0
2018-May-19 10:30N 39°43' W 075°31'0 0.0
2018-May-19 10:00N 39°43' W 075°31'0 0.0
2018-May-19 09:30N 39°43' W 075°31'0 0.0
2018-May-19 09:00N 39°43' W 075°31'0 0.0
2018-May-19 08:30N 39°43' W 075°31'0 0.0
2018-May-19 08:00N 39°43' W 075°31'0 0.0
2018-May-19 07:30N 39°43' W 075°31'0 0.0
2018-May-19 07:00N 39°43' W 075°31'0 0.0
2018-May-19 06:31N 39°43' W 075°31'0 0.0
2018-May-19 06:00N 39°43' W 075°31'0 0.0
2018-May-19 05:27N 39°43' W 075°31'0 0.0
2018-May-19 05:01N 39°43' W 075°31'0 0.0
2018-May-19 04:30N 39°43' W 075°31'0 0.0
2018-May-19 04:00N 39°43' W 075°31'0 0.0
2018-May-19 03:30N 39°43' W 075°31'0 0.0
2018-May-19 03:01N 39°43' W 075°31'0 0.0
2018-May-19 02:31N 39°43' W 075°31'0 0.0
2018-May-19 02:00N 39°43' W 075°31'0 0.0
2018-May-19 01:31N 39°43' W 075°31'0 0.0
2018-May-19 01:00N 39°43' W 075°31'0 0.0
2018-May-19 00:31N 39°43' W 075°31'0 0.0
2018-May-19 00:01N 39°43' W 075°31'0 0.0
2018-May-18 23:30N 39°43' W 075°31'0 0.0
2018-May-18 23:00N 39°43' W 075°31'0 0.0
2018-May-18 22:30N 39°43' W 075°31'0 0.0
2018-May-18 22:01N 39°43' W 075°31'0 0.0
2018-May-18 21:30N 39°43' W 075°31'0 0.7
2018-May-18 21:00N 39°43' W 075°31'0 0.7
2018-May-18 20:31N 39°43' W 075°31'0 0.0
2018-May-18 20:01N 39°43' W 075°31'0 0.0
2018-May-18 19:31N 39°43' W 075°31'0 0.0
2018-May-18 19:01N 39°43' W 075°31'0 0.0
2018-May-18 18:29N 39°43' W 075°31'0 0.0
2018-May-18 18:01N 39°43' W 075°31'0 0.0
2018-May-18 17:31N 39°43' W 075°31'0 0.0
2018-May-18 17:01N 39°43' W 075°31'2 4.2
2018-May-18 16:30N 39°41' W 075°32'611.5
2018-May-18 16:00N 39°36' W 075°36'1 1.9
2018-May-18 15:30N 39°35' W 075°35'0 0.0
2018-May-18 15:00N 39°35' W 075°35'0 0.0
2018-May-18 14:30N 39°35' W 075°35'0 0.4
2018-May-18 14:00N 39°35' W 075°35'4 8.7
2018-May-18 13:30N 39°31' W 075°33'5 9.2
2018-May-18 13:00N 39°26' W 075°32'5 9.5
2018-May-18 12:30N 39°23' W 075°28'5 9.4
2018-May-18 12:00N 39°19' W 075°24'4 8.7
2018-May-18 11:30N 39°16' W 075°21'4 8.9
2018-May-18 11:00N 39°12' W 075°17'5 9.5
2018-May-18 10:30N 39°08' W 075°14'4 8.5
2018-May-18 10:00N 39°04' W 075°13'5 4.4
2018-May-18 08:55N 38°59' W 075°13'0 1.0
2018-May-18 08:30N 38°59' W 075°13'9 4.1
2018-May-18 06:22N 39°08' W 075°14'711.5
2018-May-18 05:45N 39°14' W 075°18'310.5
2018-May-18 05:31N 39°16' W 075°20'5 9.6
2018-May-18 05:00N 39°19' W 075°25'5 9.3
2018-May-18 04:30N 39°23' W 075°28'4 8.1
2018-May-18 04:00N 39°26' W 075°32'4 7.6
2018-May-18 03:30N 39°29' W 075°34'4 7.8
2018-May-18 03:00N 39°33' W 075°33'3 4.8
2018-May-18 02:28N 39°35' W 075°35'0 0.1
2018-May-18 02:00N 39°35' W 075°35'4 8.2
2018-May-18 01:30N 39°39' W 075°34'5 9.4
2018-May-18 01:00N 39°43' W 075°31'0 0.0
2018-May-18 00:30N 39°43' W 075°31'3 6.3
2018-May-18 00:00N 39°46' W 075°29'612.1
2018-May-17 23:30N 39°49' W 075°23'510.2
2018-May-17 23:00N 39°51' W 075°16'0 0.0
2018-May-17 22:30N 39°51' W 075°16'0 0.0
2018-May-17 22:01N 39°51' W 075°16'0 0.4
2018-May-17 21:30N 39°51' W 075°17'2 4.5
2018-May-17 21:00N 39°51' W 075°19'2 4.7
2018-May-17 20:30N 39°51' W 075°16'5 9.1
2018-May-17 20:00N 39°53' W 075°11'0 0.0
2018-May-17 19:30N 39°53' W 075°11'0 0.0
2018-May-17 19:00N 39°53' W 075°11'0 0.0
2018-May-17 18:30N 39°53' W 075°11'0 0.0
2018-May-17 18:00N 39°53' W 075°11'0 0.0
2018-May-17 17:30N 39°53' W 075°11'0 0.0
2018-May-17 17:00N 39°53' W 075°11'0 0.0
2018-May-17 16:30N 39°53' W 075°11'0 0.0
2018-May-17 16:00N 39°53' W 075°11'0 0.0
2018-May-17 15:30N 39°53' W 075°11'0 0.0
2018-May-17 15:00N 39°53' W 075°11'0 0.0
2018-May-17 14:30N 39°53' W 075°11'3 5.5
2018-May-17 14:00N 39°54' W 075°08'1 1.4
2018-May-17 13:30N 39°55' W 075°08'0 0.1
2018-May-17 13:00N 39°55' W 075°08'0 0.0
2018-May-17 12:30N 39°55' W 075°08'0 0.0
2018-May-17 12:00N 39°55' W 075°08'0 0.0
2018-May-17 11:31N 39°55' W 075°08'0 0.0
2018-May-17 11:00N 39°55' W 075°08'0 0.0
2018-May-17 10:30N 39°55' W 075°08'0 0.0
2018-May-17 10:00N 39°55' W 075°08'1 1.1
2018-May-17 09:31N 39°56' W 075°08'4 7.7
2018-May-17 09:00N 39°59' W 075°05'0 0.1
2018-May-17 08:31N 39°59' W 075°05'1 1.1
2018-May-17 08:00N 39°59' W 075°06'0 0.7
2018-May-17 07:30N 39°59' W 075°05'0 0.0
2018-May-17 07:00N 39°59' W 075°05'0 0.0
2018-May-17 06:30N 39°59' W 075°05'0 0.0
2018-May-17 06:00N 39°59' W 075°05'0 0.0
2018-May-17 05:30N 39°59' W 075°05'0 0.0
2018-May-17 05:00N 39°59' W 075°05'0 0.0
2018-May-17 04:30N 39°59' W 075°05'0 0.0
2018-May-17 04:00N 39°59' W 075°05'0 0.0
2018-May-17 03:30N 39°59' W 075°05'0 0.4
2018-May-17 03:00N 39°59' W 075°05'4 7.6
2018-May-17 02:30N 39°56' W 075°08'4 7.0
2018-May-17 02:00N 39°53' W 075°11'3 5.3
2018-May-17 01:30N 39°51' W 075°14'0 0.0
2018-May-17 01:00N 39°51' W 075°14'1 1.1
2018-May-17 00:30N 39°52' W 075°13'2 4.5
2018-May-17 00:01N 39°53' W 075°11'0 0.0
2018-May-16 23:31N 39°53' W 075°11'0 0.0
2018-May-16 23:01N 39°53' W 075°11'0 0.0
2018-May-16 22:30N 39°53' W 075°11'0 0.0
2018-May-16 22:00N 39°53' W 075°11'0 0.0
2018-May-16 21:30N 39°53' W 075°11'0 0.0
2018-May-16 21:01N 39°53' W 075°11'0 0.0
2018-May-16 20:30N 39°53' W 075°11'2 3.4
2018-May-16 20:00N 39°53' W 075°09'2 4.4
2018-May-16 19:30N 39°55' W 075°08'1 1.1
2018-May-16 19:00N 39°54' W 075°08'2 4.5
2018-May-16 18:30N 39°53' W 075°10'3 5.0
2018-May-16 18:00N 39°52' W 075°13'0 0.1
2018-May-16 17:31N 39°52' W 075°13'0 0.0
2018-May-16 17:01N 39°52' W 075°13'0 0.6
2018-May-16 16:30N 39°52' W 075°13'1 2.2
2018-May-16 16:00N 39°51' W 075°15'2 4.6
2018-May-16 15:30N 39°53' W 075°12'1 2.1
2018-May-16 15:01N 39°53' W 075°11'0 0.0
2018-May-16 14:30N 39°53' W 075°11'0 0.0
2018-May-16 14:00N 39°53' W 075°11'0 0.0
2018-May-16 13:30N 39°53' W 075°11'0 0.0
2018-May-16 13:00N 39°53' W 075°11'0 0.0
2018-May-16 12:30N 39°53' W 075°11'0 0.0
2018-May-16 11:59N 39°53' W 075°11'0 0.0
2018-May-16 11:31N 39°53' W 075°11'0 0.0
2018-May-16 11:00N 39°53' W 075°11'0 0.0
2018-May-16 10:30N 39°53' W 075°11'0 0.0
2018-May-16 10:00N 39°53' W 075°11'0 0.0
2018-May-16 09:28N 39°53' W 075°11'0 0.0
2018-May-16 09:00N 39°53' W 075°11'0 0.0
2018-May-16 08:30N 39°53' W 075°11'0 0.0
2018-May-16 08:00N 39°53' W 075°11'0 0.1
2018-May-16 07:30N 39°53' W 075°11'0 0.1
2018-May-16 07:00N 39°53' W 075°11'0 0.0
2018-May-16 06:30N 39°53' W 075°11'0 0.0
2018-May-16 06:00N 39°53' W 075°11'0 0.0
2018-May-16 05:30N 39°53' W 075°11'0 0.0
2018-May-16 05:00N 39°53' W 075°11'0 0.0
2018-May-16 04:30N 39°53' W 075°11'0 0.0
2018-May-16 04:00N 39°53' W 075°11'0 0.0
2018-May-16 03:30N 39°53' W 075°11'0 0.0
2018-May-16 03:00N 39°53' W 075°11'0 0.0
2018-May-16 02:30N 39°53' W 075°11'0 0.0
2018-May-16 02:00N 39°53' W 075°11'0 0.0
2018-May-16 01:30N 39°53' W 075°11'0 0.0
2018-May-16 01:00N 39°53' W 075°11'0 0.7
2018-May-16 00:30N 39°53' W 075°11'4 8.2
2018-May-16 00:00N 39°51' W 075°16'0 0.2
2018-May-15 23:30N 39°51' W 075°16'4 8.7
2018-May-15 23:00N 39°53' W 075°11'0 0.0
2018-May-15 22:30N 39°53' W 075°11'0 0.0
2018-May-15 22:00N 39°53' W 075°11'0 0.0
2018-May-15 21:30N 39°53' W 075°11'2 3.8
2018-May-15 21:00N 39°53' W 075°09'5 9.3
2018-May-15 20:30N 39°58' W 075°08'2 3.4
2018-May-15 20:00N 39°59' W 075°06'0 0.3
2018-May-15 19:30N 39°58' W 075°06'0 0.4
2018-May-15 19:01N 39°58' W 075°06'0 0.9
2018-May-15 18:30N 39°59' W 075°06'0 0.0
2018-May-15 18:00N 39°59' W 075°06'1 2.3
2018-May-15 17:30N 39°58' W 075°07'4 8.9
2018-May-15 17:00N 39°54' W 075°08'2 4.9
2018-May-15 16:30N 39°53' W 075°11'0 0.0
2018-May-15 16:01N 39°53' W 075°11'0 0.0
2018-May-15 15:30N 39°53' W 075°11'0 0.0
2018-May-15 15:00N 39°53' W 075°11'0 0.0
2018-May-15 14:30N 39°53' W 075°11'0 0.0
2018-May-15 14:00N 39°53' W 075°11'0 0.0
2018-May-15 13:30N 39°53' W 075°11'0 0.0
2018-May-15 13:00N 39°53' W 075°11'0 0.0
2018-May-15 12:28N 39°53' W 075°11'0 0.0
2018-May-15 11:59N 39°53' W 075°11'0 0.0
2018-May-15 11:30N 39°53' W 075°11'0 0.0
2018-May-15 11:00N 39°53' W 075°11'1 1.8
2018-May-15 10:30N 39°53' W 075°12'4 7.7
2018-May-15 10:00N 39°51' W 075°17'4 8.4
2018-May-15 09:30N 39°50' W 075°22'3 5.7
2018-May-15 09:01N 39°48' W 075°25'0 0.9
2018-May-15 08:30N 39°48' W 075°25'0 0.7
2018-May-15 08:00N 39°48' W 075°25'0 0.0
2018-May-15 07:30N 39°48' W 075°25'1 1.6
2018-May-15 07:00N 39°48' W 075°26'1 1.8
2018-May-15 06:30N 39°49' W 075°25'0 0.5
2018-May-15 06:00N 39°49' W 075°25'1 2.2
2018-May-15 05:30N 39°48' W 075°26'0 0.0
2018-May-15 05:01N 39°48' W 075°26'0 0.0
2018-May-15 04:31N 39°48' W 075°26'4 7.6
2018-May-15 04:01N 39°50' W 075°22'4 8.7
2018-May-15 03:31N 39°51' W 075°16'4 8.6
2018-May-15 03:00N 39°53' W 075°11'3 6.3
2018-May-15 02:30N 39°55' W 075°08'3 7.0
2018-May-15 02:00N 39°58' W 075°06'1 1.5
2018-May-15 01:30N 39°59' W 075°06'1 1.8
2018-May-15 01:00N 39°58' W 075°07'2 3.9
2018-May-15 00:30N 39°57' W 075°08'2 3.3
2018-May-15 00:00N 39°58' W 075°07'4 7.0
2018-May-14 23:30N 39°55' W 075°08'3 5.9
2018-May-14 23:00N 39°53' W 075°11'0 0.0
2018-May-14 22:31N 39°53' W 075°11'0 0.0
2018-May-14 22:00N 39°53' W 075°11'0 0.0
2018-May-14 21:30N 39°53' W 075°11'0 0.0
2018-May-14 21:00N 39°53' W 075°11'0 0.0
2018-May-14 20:30N 39°53' W 075°11'0 0.0
2018-May-14 20:00N 39°53' W 075°11'0 0.0
2018-May-14 19:30N 39°53' W 075°11'0 0.0
2018-May-14 19:00N 39°53' W 075°11'0 0.0
2018-May-14 18:31N 39°53' W 075°11'0 0.0
2018-May-14 18:01N 39°53' W 075°11'0 0.0
2018-May-14 17:31N 39°53' W 075°11'0 0.0
2018-May-14 17:00N 39°53' W 075°11'0 0.0
2018-May-14 16:30N 39°53' W 075°11'0 0.0
2018-May-14 16:01N 39°53' W 075°11'0 0.0
2018-May-14 15:30N 39°53' W 075°11'0 0.0
2018-May-14 15:00N 39°53' W 075°11'0 0.0
2018-May-14 14:30N 39°53' W 075°11'0 0.0
2018-May-14 14:00N 39°53' W 075°11'0 0.0
2018-May-14 13:30N 39°53' W 075°11'0 0.0
2018-May-14 13:00N 39°53' W 075°11'0 0.0
2018-May-14 12:23N 39°53' W 075°11'18 3.9
2018-May-14 07:40N 39°43' W 075°31'0 0.6
2018-May-14 07:30N 39°43' W 075°31'0 0.7
2018-May-14 07:00N 39°43' W 075°31'5 9.6
2018-May-14 06:30N 39°39' W 075°34'4 7.9
2018-May-14 06:00N 39°35' W 075°35'0 0.0
2018-May-14 05:30N 39°35' W 075°35'0 0.0
2018-May-14 05:00N 39°35' W 075°35'0 0.4
2018-May-14 04:30N 39°35' W 075°35'2 4.0
2018-May-14 04:00N 39°34' W 075°33'2 4.7
2018-May-14 03:30N 39°36' W 075°34'3 6.8
2018-May-14 03:00N 39°39' W 075°33'5 9.1
2018-May-14 02:29N 39°44' W 075°30'6 8.3
2018-May-14 01:42N 39°48' W 075°25'7 0.4
2018-May-13 08:07N 39°51' W 075°16'0 0.9
2018-May-13 07:45N 39°51' W 075°16'0 0.0
2018-May-13 07:30N 39°51' W 075°16'0 0.0
2018-May-13 06:56N 39°51' W 075°16'0 0.6
2018-May-13 06:28N 39°51' W 075°16'2 4.8
2018-May-13 06:00N 39°51' W 075°19'2 3.5
2018-May-13 05:25N 39°51' W 075°17'0 1.2
2018-May-13 05:00N 39°51' W 075°16'1 2.2
2018-May-13 04:30N 39°51' W 075°15'4 7.3
2018-May-13 04:00N 39°53' W 075°10'3 5.9
2018-May-13 03:30N 39°55' W 075°08'2 4.0
2018-May-13 02:55N 39°53' W 075°09'611.9
2018-May-13 02:25N 39°51' W 075°17'613.7
2018-May-13 01:57N 39°49' W 075°24'1 1.3
2018-May-13 01:31N 39°48' W 075°25'0 0.1
2018-May-13 00:58N 39°48' W 075°25'2 3.5
2018-May-13 00:30N 39°48' W 075°27'0 0.3
2018-May-13 00:00N 39°48' W 075°26'2 3.0
2018-May-12 23:29N 39°49' W 075°25'4 8.4
2018-May-12 22:59N 39°51' W 075°20'611.7
2018-May-12 22:29N 39°52' W 075°13'2 3.6
2018-May-12 22:00N 39°53' W 075°11'0 0.0
2018-May-12 21:30N 39°53' W 075°11'0 0.0
2018-May-12 21:00N 39°53' W 075°11'0 0.0
2018-May-12 20:30N 39°53' W 075°11'0 0.0
2018-May-12 20:01N 39°53' W 075°11'  
Track history (hours):
 
Tides and Currents Weather Stations Pressure Air Temp Water Temp Dewpoint Dewpoint Depression Visibility Wind Speed Wind Dir Waves Ship Positions

Sonie

Owner: TUG SONIE, LLC, NEW CASTLE, DE. More information available from US FCC via Universal Licensing System and Coast Guard Vessel Documentation Center.

Last reported at 2018-May-22 19:30 UTC. Time now 2018-May-22 19:40 UTC.
Position N 39°51' W 075°16'.

Length 26 m; draft 3.5 m.

Type: Tug. MMSI: 367120230.

Date/timePositionNaut miles runAvg speedWind from/ knotsBaromVisibWave heightAir tempDewpointWater temp
2018-May-22 19:30N 39°51' W 075°16'1 1.9
2018-May-22 19:00N 39°51' W 075°17'4 7.2
2018-May-22 18:30N 39°52' W 075°13'2 3.7
2018-May-22 18:00N 39°53' W 075°11'0 0.0
2018-May-22 17:31N 39°53' W 075°11'0 0.0
2018-May-22 17:00N 39°53' W 075°11'0 0.0
2018-May-22 16:30N 39°53' W 075°11'0 0.0
2018-May-22 16:00N 39°53' W 075°11'0 0.0
2018-May-22 15:30N 39°53' W 075°11'0 0.0
2018-May-22 15:00N 39°53' W 075°11'0 0.0
2018-May-22 14:30N 39°53' W 075°11'0 0.0
2018-May-22 14:00N 39°53' W 075°11'3 6.7
2018-May-22 13:30N 39°51' W 075°15'1 1.7
2018-May-22 13:00N 39°51' W 075°16'0 0.0
2018-May-22 12:30N 39°51' W 075°16'0 0.0
2018-May-22 12:00N 39°51' W 075°16'0 0.0
2018-May-22 11:30N 39°51' W 075°16'0 0.0
2018-May-22 11:00N 39°51' W 075°16'0 0.0
2018-May-22 10:30N 39°51' W 075°16'0 0.0
2018-May-22 10:00N 39°51' W 075°16'0 0.0
2018-May-22 09:30N 39°51' W 075°16'0 0.0
2018-May-22 09:00N 39°51' W 075°16'0 0.0
2018-May-22 08:30N 39°51' W 075°16'4 7.1
2018-May-22 08:00N 39°53' W 075°12'3 5.6
2018-May-22 07:30N 39°54' W 075°08'0 0.4
2018-May-22 07:01N 39°54' W 075°08'2 4.0
2018-May-22 06:30N 39°53' W 075°10'1 1.0
2018-May-22 06:00N 39°53' W 075°11'0 0.0
2018-May-22 05:30N 39°53' W 075°11'0 0.0
2018-May-22 05:00N 39°53' W 075°11'0 0.0
2018-May-22 04:30N 39°53' W 075°11'0 0.0
2018-May-22 04:00N 39°53' W 075°11'0 0.0
2018-May-22 03:30N 39°53' W 075°11'0 0.0
2018-May-22 03:00N 39°53' W 075°11'0 0.0
2018-May-22 02:30N 39°53' W 075°11'2 3.7
2018-May-22 02:00N 39°52' W 075°13'0 0.1
2018-May-22 01:30N 39°52' W 075°13'0 0.1
2018-May-22 01:00N 39°52' W 075°13'1 1.4
2018-May-22 00:30N 39°53' W 075°12'1 2.2
2018-May-22 00:00N 39°53' W 075°11'0 0.0
2018-May-21 23:30N 39°53' W 075°11'0 0.0
2018-May-21 23:00N 39°53' W 075°11'0 0.0
2018-May-21 22:29N 39°53' W 075°11'1 2.4
2018-May-21 22:00N 39°53' W 075°10'0 0.0
2018-May-21 21:30N 39°53' W 075°10'0 0.0
2018-May-21 21:00N 39°53' W 075°10'0 0.6
2018-May-21 20:31N 39°53' W 075°10'2 3.9
2018-May-21 20:00N 39°52' W 075°12'1 2.3
2018-May-21 19:30N 39°53' W 075°11'0 0.0
2018-May-21 19:00N 39°53' W 075°11'2 4.3
2018-May-21 18:30N 39°53' W 075°08'2 3.2
2018-May-21 18:00N 39°55' W 075°08'1 2.1
2018-May-21 17:30N 39°54' W 075°08'3 5.0
2018-May-21 17:00N 39°53' W 075°11'0 0.0
2018-May-21 16:31N 39°53' W 075°11'0 0.0
2018-May-21 16:01N 39°53' W 075°11'0 0.0
2018-May-21 15:30N 39°53' W 075°11'0 0.0
2018-May-21 15:01N 39°53' W 075°11'0 0.0
2018-May-21 14:30N 39°53' W 075°11'0 0.0
2018-May-21 14:00N 39°53' W 075°11'2 3.5
2018-May-21 13:30N 39°52' W 075°13'3 5.6
2018-May-21 13:00N 39°51' W 075°16'0 0.0
2018-May-21 12:30N 39°51' W 075°16'0 0.3
2018-May-21 12:00N 39°51' W 075°16'0 0.3
2018-May-21 11:30N 39°51' W 075°16'0 0.7
2018-May-21 11:00N 39°51' W 075°16'0 0.0
2018-May-21 10:30N 39°51' W 075°16'0 0.0
2018-May-21 10:00N 39°51' W 075°16'0 0.0
2018-May-21 09:30N 39°51' W 075°16'0 0.0
2018-May-21 09:00N 39°51' W 075°16'0 0.0
2018-May-21 08:30N 39°51' W 075°16'0 0.0
2018-May-21 08:00N 39°51' W 075°16'0 0.0
2018-May-21 07:30N 39°51' W 075°16'0 0.0
2018-May-21 07:00N 39°51' W 075°16'0 0.0
2018-May-21 06:30N 39°51' W 075°16'0 0.0
2018-May-21 06:00N 39°51' W 075°16'0 0.0
2018-May-21 05:30N 39°51' W 075°16'0 0.0
2018-May-21 05:00N 39°51' W 075°16'0 0.0
2018-May-21 04:31N 39°51' W 075°16'0 0.0
2018-May-21 04:00N 39°51' W 075°16'1 2.4
2018-May-21 03:30N 39°51' W 075°14'0 1.0
2018-May-21 03:01N 39°51' W 075°14'1 2.9
2018-May-21 02:30N 39°52' W 075°12'1 2.6
2018-May-21 02:00N 39°53' W 075°11'0 0.1
2018-May-21 01:30N 39°53' W 075°11'0 0.0
2018-May-21 01:00N 39°53' W 075°11'0 0.0
2018-May-21 00:30N 39°53' W 075°11'0 0.0
2018-May-21 00:01N 39°53' W 075°11'0 0.0
2018-May-20 23:31N 39°53' W 075°11'0 0.0
2018-May-20 23:00N 39°53' W 075°11'2 3.9
2018-May-20 22:30N 39°52' W 075°13'0 0.0
2018-May-20 22:00N 39°52' W 075°13'0 0.0
2018-May-20 21:30N 39°52' W 075°13'0 0.7
2018-May-20 21:00N 39°52' W 075°13'3 5.2
2018-May-20 20:30N 39°51' W 075°16'2 4.0
2018-May-20 20:00N 39°52' W 075°13'2 4.5
2018-May-20 19:31N 39°53' W 075°11'0 0.0
2018-May-20 19:01N 39°53' W 075°11'0 0.0
2018-May-20 18:30N 39°53' W 075°11'0 0.0
2018-May-20 18:01N 39°53' W 075°11'0 0.0
2018-May-20 17:30N 39°53' W 075°11'0 0.0
2018-May-20 17:00N 39°53' W 075°11'0 0.0
2018-May-20 16:30N 39°53' W 075°11'2 4.8
2018-May-20 16:00N 39°52' W 075°13'0 0.8
2018-May-20 15:30N 39°51' W 075°14'0 0.0
2018-May-20 15:00N 39°51' W 075°14'2 4.4
2018-May-20 14:30N 39°51' W 075°17'5 9.4
2018-May-20 14:00N 39°49' W 075°23'4 8.2
2018-May-20 13:30N 39°47' W 075°27'5 9.6
2018-May-20 13:00N 39°43' W 075°30'1 1.1
2018-May-20 12:31N 39°43' W 075°31'0 0.0
2018-May-20 12:01N 39°43' W 075°31'0 0.0
2018-May-20 11:30N 39°43' W 075°31'0 0.0
2018-May-20 11:01N 39°43' W 075°31'0 0.0
2018-May-20 10:31N 39°43' W 075°31'0 0.0
2018-May-20 10:00N 39°43' W 075°31'0 0.0
2018-May-20 09:30N 39°43' W 075°31'0 0.0
2018-May-20 09:00N 39°43' W 075°31'0 0.0
2018-May-20 08:30N 39°43' W 075°31'0 0.0
2018-May-20 08:01N 39°43' W 075°31'0 0.0
2018-May-20 07:31N 39°43' W 075°31'0 0.0
2018-May-20 07:01N 39°43' W 075°31'0 0.0
2018-May-20 06:30N 39°43' W 075°31'0 0.0
2018-May-20 06:01N 39°43' W 075°31'0 0.0
2018-May-20 05:31N 39°43' W 075°31'0 0.0
2018-May-20 05:00N 39°43' W 075°31'0 0.0
2018-May-20 04:30N 39°43' W 075°31'0 0.0
2018-May-20 04:00N 39°43' W 075°31'0 0.0
2018-May-20 03:30N 39°43' W 075°31'0 0.0
2018-May-20 03:01N 39°43' W 075°31'0 0.0
2018-May-20 02:31N 39°43' W 075°31'0 0.0
2018-May-20 02:01N 39°43' W 075°31'0 0.0
2018-May-20 01:31N 39°43' W 075°31'0 0.0
2018-May-20 01:01N 39°43' W 075°31'0 0.0
2018-May-20 00:30N 39°43' W 075°31'0 0.0
2018-May-20 00:00N 39°43' W 075°31'0 0.0
2018-May-19 23:31N 39°43' W 075°31'0 0.4
2018-May-19 23:00N 39°43' W 075°31'0 0.0
2018-May-19 22:31N 39°43' W 075°31'0 0.0
2018-May-19 22:01N 39°43' W 075°31'0 0.2
2018-May-19 21:30N 39°43' W 075°31'2 4.6
2018-May-19 21:01N 39°41' W 075°31'2 3.6
2018-May-19 20:30N 39°42' W 075°31'1 1.2
2018-May-19 20:01N 39°43' W 075°31'0 0.0
2018-May-19 19:30N 39°43' W 075°31'0 0.0
2018-May-19 19:01N 39°43' W 075°31'0 0.0
2018-May-19 18:30N 39°43' W 075°31'0 0.0
2018-May-19 18:00N 39°43' W 075°31'0 0.0
2018-May-19 17:30N 39°43' W 075°31'0 0.0
2018-May-19 17:00N 39°43' W 075°31'0 0.0
2018-May-19 16:31N 39°43' W 075°31'0 0.0
2018-May-19 16:00N 39°43' W 075°31'0 0.0
2018-May-19 15:30N 39°43' W 075°31'0 0.0
2018-May-19 15:00N 39°43' W 075°31'0 0.0
2018-May-19 14:30N 39°43' W 075°31'0 0.0
2018-May-19 14:01N 39°43' W 075°31'0 0.0
2018-May-19 13:31N 39°43' W 075°31'0 0.0
2018-May-19 13:00N 39°43' W 075°31'0 0.0
2018-May-19 12:31N 39°43' W 075°31'0 0.0
2018-May-19 12:00N 39°43' W 075°31'0 0.0
2018-May-19 11:30N 39°43' W 075°31'0 0.0
2018-May-19 11:00N 39°43' W 075°31'0 0.0
2018-May-19 10:30N 39°43' W 075°31'0 0.0
2018-May-19 10:00N 39°43' W 075°31'0 0.0
2018-May-19 09:30N 39°43' W 075°31'0 0.0
2018-May-19 09:00N 39°43' W 075°31'0 0.0
2018-May-19 08:30N 39°43' W 075°31'0 0.0
2018-May-19 08:00N 39°43' W 075°31'0 0.0
2018-May-19 07:30N 39°43' W 075°31'0 0.0
2018-May-19 07:00N 39°43' W 075°31'0 0.0
2018-May-19 06:31N 39°43' W 075°31'0 0.0
2018-May-19 06:00N 39°43' W 075°31'0 0.0
2018-May-19 05:27N 39°43' W 075°31'0 0.0
2018-May-19 05:01N 39°43' W 075°31'0 0.0
2018-May-19 04:30N 39°43' W 075°31'0 0.0
2018-May-19 04:00N 39°43' W 075°31'0 0.0
2018-May-19 03:30N 39°43' W 075°31'0 0.0
2018-May-19 03:01N 39°43' W 075°31'0 0.0
2018-May-19 02:31N 39°43' W 075°31'0 0.0
2018-May-19 02:00N 39°43' W 075°31'0 0.0
2018-May-19 01:31N 39°43' W 075°31'0 0.0
2018-May-19 01:00N 39°43' W 075°31'0 0.0
2018-May-19 00:31N 39°43' W 075°31'0 0.0
2018-May-19 00:01N 39°43' W 075°31'0 0.0
2018-May-18 23:30N 39°43' W 075°31'0 0.0
2018-May-18 23:00N 39°43' W 075°31'0 0.0
2018-May-18 22:30N 39°43' W 075°31'0 0.0
2018-May-18 22:01N 39°43' W 075°31'0 0.0
2018-May-18 21:30N 39°43' W 075°31'0 0.7
2018-May-18 21:00N 39°43' W 075°31'0 0.7
2018-May-18 20:31N 39°43' W 075°31'0 0.0
2018-May-18 20:01N 39°43' W 075°31'0 0.0
2018-May-18 19:31N 39°43' W 075°31'0 0.0
2018-May-18 19:01N 39°43' W 075°31'0 0.0
2018-May-18 18:29N 39°43' W 075°31'0 0.0
2018-May-18 18:01N 39°43' W 075°31'0 0.0
2018-May-18 17:31N 39°43' W 075°31'0 0.0
2018-May-18 17:01N 39°43' W 075°31'2 4.2
2018-May-18 16:30N 39°41' W 075°32'611.5
2018-May-18 16:00N 39°36' W 075°36'1 1.9
2018-May-18 15:30N 39°35' W 075°35'0 0.0
2018-May-18 15:00N 39°35' W 075°35'0 0.0
2018-May-18 14:30N 39°35' W 075°35'0 0.4
2018-May-18 14:00N 39°35' W 075°35'4 8.7
2018-May-18 13:30N 39°31' W 075°33'5 9.2
2018-May-18 13:00N 39°26' W 075°32'5 9.5
2018-May-18 12:30N 39°23' W 075°28'5 9.4
2018-May-18 12:00N 39°19' W 075°24'4 8.7
2018-May-18 11:30N 39°16' W 075°21'4 8.9
2018-May-18 11:00N 39°12' W 075°17'5 9.5
2018-May-18 10:30N 39°08' W 075°14'4 8.5
2018-May-18 10:00N 39°04' W 075°13'5 4.4
2018-May-18 08:55N 38°59' W 075°13'0 1.0
2018-May-18 08:30N 38°59' W 075°13'9 4.1
2018-May-18 06:22N 39°08' W 075°14'711.5
2018-May-18 05:45N 39°14' W 075°18'310.5
2018-May-18 05:31N 39°16' W 075°20'5 9.6
2018-May-18 05:00N 39°19' W 075°25'5 9.3
2018-May-18 04:30N 39°23' W 075°28'4 8.1
2018-May-18 04:00N 39°26' W 075°32'4 7.6
2018-May-18 03:30N 39°29' W 075°34'4 7.8
2018-May-18 03:00N 39°33' W 075°33'3 4.8
2018-May-18 02:28N 39°35' W 075°35'0 0.1
2018-May-18 02:00N 39°35' W 075°35'4 8.2
2018-May-18 01:30N 39°39' W 075°34'5 9.4
2018-May-18 01:00N 39°43' W 075°31'0 0.0
2018-May-18 00:30N 39°43' W 075°31'3 6.3
2018-May-18 00:00N 39°46' W 075°29'612.1
2018-May-17 23:30N 39°49' W 075°23'510.2
2018-May-17 23:00N 39°51' W 075°16'0 0.0
2018-May-17 22:30N 39°51' W 075°16'0 0.0
2018-May-17 22:01N 39°51' W 075°16'0 0.4
2018-May-17 21:30N 39°51' W 075°17'2 4.5
2018-May-17 21:00N 39°51' W 075°19'2 4.7
2018-May-17 20:30N 39°51' W 075°16'5 9.1
2018-May-17 20:00N 39°53' W 075°11'0 0.0
2018-May-17 19:30N 39°53' W 075°11'0 0.0
2018-May-17 19:00N 39°53' W 075°11'0 0.0
2018-May-17 18:30N 39°53' W 075°11'0 0.0
2018-May-17 18:00N 39°53' W 075°11'0 0.0
2018-May-17 17:30N 39°53' W 075°11'0 0.0
2018-May-17 17:00N 39°53' W 075°11'0 0.0
2018-May-17 16:30N 39°53' W 075°11'0 0.0
2018-May-17 16:00N 39°53' W 075°11'0 0.0
2018-May-17 15:30N 39°53' W 075°11'0 0.0
2018-May-17 15:00N 39°53' W 075°11'0 0.0
2018-May-17 14:30N 39°53' W 075°11'3 5.5
2018-May-17 14:00N 39°54' W 075°08'1 1.4
2018-May-17 13:30N 39°55' W 075°08'0 0.1
2018-May-17 13:00N 39°55' W 075°08'0 0.0
2018-May-17 12:30N 39°55' W 075°08'0 0.0
2018-May-17 12:00N 39°55' W 075°08'0 0.0
2018-May-17 11:31N 39°55' W 075°08'0 0.0
2018-May-17 11:00N 39°55' W 075°08'0 0.0
2018-May-17 10:30N 39°55' W 075°08'0 0.0
2018-May-17 10:00N 39°55' W 075°08'1 1.1
2018-May-17 09:31N 39°56' W 075°08'4 7.7
2018-May-17 09:00N 39°59' W 075°05'0 0.1
2018-May-17 08:31N 39°59' W 075°05'1 1.1
2018-May-17 08:00N 39°59' W 075°06'0 0.7
2018-May-17 07:30N 39°59' W 075°05'0 0.0
2018-May-17 07:00N 39°59' W 075°05'0 0.0
2018-May-17 06:30N 39°59' W 075°05'0 0.0
2018-May-17 06:00N 39°59' W 075°05'0 0.0
2018-May-17 05:30N 39°59' W 075°05'0 0.0
2018-May-17 05:00N 39°59' W 075°05'0 0.0
2018-May-17 04:30N 39°59' W 075°05'0 0.0
2018-May-17 04:00N 39°59' W 075°05'0 0.0
2018-May-17 03:30N 39°59' W 075°05'0 0.4
2018-May-17 03:00N 39°59' W 075°05'4 7.6
2018-May-17 02:30N 39°56' W 075°08'4 7.0
2018-May-17 02:00N 39°53' W 075°11'3 5.3
2018-May-17 01:30N 39°51' W 075°14'0 0.0
2018-May-17 01:00N 39°51' W 075°14'1 1.1
2018-May-17 00:30N 39°52' W 075°13'2 4.5
2018-May-17 00:01N 39°53' W 075°11'0 0.0
2018-May-16 23:31N 39°53' W 075°11'0 0.0
2018-May-16 23:01N 39°53' W 075°11'0 0.0
2018-May-16 22:30N 39°53' W 075°11'0 0.0
2018-May-16 22:00N 39°53' W 075°11'0 0.0
2018-May-16 21:30N 39°53' W 075°11'0 0.0
2018-May-16 21:01N 39°53' W 075°11'0 0.0
2018-May-16 20:30N 39°53' W 075°11'2 3.4
2018-May-16 20:00N 39°53' W 075°09'2 4.4
2018-May-16 19:30N 39°55' W 075°08'1 1.1
2018-May-16 19:00N 39°54' W 075°08'2 4.5
2018-May-16 18:30N 39°53' W 075°10'3 5.0
2018-May-16 18:00N 39°52' W 075°13'0 0.1
2018-May-16 17:31N 39°52' W 075°13'0 0.0
2018-May-16 17:01N 39°52' W 075°13'0 0.6
2018-May-16 16:30N 39°52' W 075°13'1 2.2
2018-May-16 16:00N 39°51' W 075°15'2 4.6
2018-May-16 15:30N 39°53' W 075°12'1 2.1
2018-May-16 15:01N 39°53' W 075°11'0 0.0
2018-May-16 14:30N 39°53' W 075°11'0 0.0
2018-May-16 14:00N 39°53' W 075°11'0 0.0
2018-May-16 13:30N 39°53' W 075°11'0 0.0
2018-May-16 13:00N 39°53' W 075°11'0 0.0
2018-May-16 12:30N 39°53' W 075°11'0 0.0
2018-May-16 11:59N 39°53' W 075°11'0 0.0
2018-May-16 11:31N 39°53' W 075°11'0 0.0
2018-May-16 11:00N 39°53' W 075°11'0 0.0
2018-May-16 10:30N 39°53' W 075°11'0 0.0
2018-May-16 10:00N 39°53' W 075°11'0 0.0
2018-May-16 09:28N 39°53' W 075°11'0 0.0
2018-May-16 09:00N 39°53' W 075°11'0 0.0
2018-May-16 08:30N 39°53' W 075°11'0 0.0
2018-May-16 08:00N 39°53' W 075°11'0 0.1
2018-May-16 07:30N 39°53' W 075°11'0 0.1
2018-May-16 07:00N 39°53' W 075°11'0 0.0
2018-May-16 06:30N 39°53' W 075°11'0 0.0
2018-May-16 06:00N 39°53' W 075°11'0 0.0
2018-May-16 05:30N 39°53' W 075°11'0 0.0
2018-May-16 05:00N 39°53' W 075°11'0 0.0
2018-May-16 04:30N 39°53' W 075°11'0 0.0
2018-May-16 04:00N 39°53' W 075°11'0 0.0
2018-May-16 03:30N 39°53' W 075°11'0 0.0
2018-May-16 03:00N 39°53' W 075°11'0 0.0
2018-May-16 02:30N 39°53' W 075°11'0 0.0
2018-May-16 02:00N 39°53' W 075°11'0 0.0
2018-May-16 01:30N 39°53' W 075°11'0 0.0
2018-May-16 01:00N 39°53' W 075°11'0 0.7
2018-May-16 00:30N 39°53' W 075°11'4 8.2
2018-May-16 00:00N 39°51' W 075°16'0 0.2
2018-May-15 23:30N 39°51' W 075°16'4 8.7
2018-May-15 23:00N 39°53' W 075°11'0 0.0
2018-May-15 22:30N 39°53' W 075°11'0 0.0
2018-May-15 22:00N 39°53' W 075°11'0 0.0
2018-May-15 21:30N 39°53' W 075°11'2 3.8
2018-May-15 21:00N 39°53' W 075°09'5 9.3
2018-May-15 20:30N 39°58' W 075°08'2 3.4
2018-May-15 20:00N 39°59' W 075°06'0 0.3
2018-May-15 19:30N 39°58' W 075°06'0 0.4
2018-May-15 19:01N 39°58' W 075°06'0 0.9
2018-May-15 18:30N 39°59' W 075°06'0 0.0
2018-May-15 18:00N 39°59' W 075°06'1 2.3
2018-May-15 17:30N 39°58' W 075°07'4 8.9
2018-May-15 17:00N 39°54' W 075°08'2 4.9
2018-May-15 16:30N 39°53' W 075°11'0 0.0
2018-May-15 16:01N 39°53' W 075°11'0 0.0
2018-May-15 15:30N 39°53' W 075°11'0 0.0
2018-May-15 15:00N 39°53' W 075°11'0 0.0
2018-May-15 14:30N 39°53' W 075°11'0 0.0
2018-May-15 14:00N 39°53' W 075°11'0 0.0
2018-May-15 13:30N 39°53' W 075°11'0 0.0
2018-May-15 13:00N 39°53' W 075°11'0 0.0
2018-May-15 12:28N 39°53' W 075°11'0 0.0
2018-May-15 11:59N 39°53' W 075°11'0 0.0
2018-May-15 11:30N 39°53' W 075°11'0 0.0
2018-May-15 11:00N 39°53' W 075°11'1 1.8
2018-May-15 10:30N 39°53' W 075°12'4 7.7
2018-May-15 10:00N 39°51' W 075°17'4 8.4
2018-May-15 09:30N 39°50' W 075°22'3 5.7
2018-May-15 09:01N 39°48' W 075°25'0 0.9
2018-May-15 08:30N 39°48' W 075°25'0 0.7
2018-May-15 08:00N 39°48' W 075°25'0 0.0
2018-May-15 07:30N 39°48' W 075°25'1 1.6
2018-May-15 07:00N 39°48' W 075°26'1 1.8
2018-May-15 06:30N 39°49' W 075°25'0 0.5
2018-May-15 06:00N 39°49' W 075°25'1 2.2
2018-May-15 05:30N 39°48' W 075°26'0 0.0
2018-May-15 05:01N 39°48' W 075°26'0 0.0
2018-May-15 04:31N 39°48' W 075°26'4 7.6
2018-May-15 04:01N 39°50' W 075°22'4 8.7
2018-May-15 03:31N 39°51' W 075°16'4 8.6
2018-May-15 03:00N 39°53' W 075°11'3 6.3
2018-May-15 02:30N 39°55' W 075°08'3 7.0
2018-May-15 02:00N 39°58' W 075°06'1 1.5
2018-May-15 01:30N 39°59' W 075°06'1 1.8
2018-May-15 01:00N 39°58' W 075°07'2 3.9
2018-May-15 00:30N 39°57' W 075°08'2 3.3
2018-May-15 00:00N 39°58' W 075°07'4 7.0
2018-May-14 23:30N 39°55' W 075°08'3 5.9
2018-May-14 23:00N 39°53' W 075°11'0 0.0
2018-May-14 22:31N 39°53' W 075°11'0 0.0
2018-May-14 22:00N 39°53' W 075°11'0 0.0
2018-May-14 21:30N 39°53' W 075°11'0 0.0
2018-May-14 21:00N 39°53' W 075°11'0 0.0
2018-May-14 20:30N 39°53' W 075°11'0 0.0
2018-May-14 20:00N 39°53' W 075°11'0 0.0
2018-May-14 19:30N 39°53' W 075°11'0 0.0
2018-May-14 19:00N 39°53' W 075°11'0 0.0
2018-May-14 18:31N 39°53' W 075°11'0 0.0
2018-May-14 18:01N 39°53' W 075°11'0 0.0
2018-May-14 17:31N 39°53' W 075°11'0 0.0
2018-May-14 17:00N 39°53' W 075°11'0 0.0
2018-May-14 16:30N 39°53' W 075°11'0 0.0
2018-May-14 16:01N 39°53' W 075°11'0 0.0
2018-May-14 15:30N 39°53' W 075°11'0 0.0
2018-May-14 15:00N 39°53' W 075°11'0 0.0
2018-May-14 14:30N 39°53' W 075°11'0 0.0
2018-May-14 14:00N 39°53' W 075°11'0 0.0
2018-May-14 13:30N 39°53' W 075°11'0 0.0
2018-May-14 13:00N 39°53' W 075°11'0 0.0
2018-May-14 12:23N 39°53' W 075°11'18 3.9
2018-May-14 07:40N 39°43' W 075°31'0 0.6
2018-May-14 07:30N 39°43' W 075°31'0 0.7
2018-May-14 07:00N 39°43' W 075°31'5 9.6
2018-May-14 06:30N 39°39' W 075°34'4 7.9
2018-May-14 06:00N 39°35' W 075°35'0 0.0
2018-May-14 05:30N 39°35' W 075°35'0 0.0
2018-May-14 05:00N 39°35' W 075°35'0 0.4
2018-May-14 04:30N 39°35' W 075°35'2 4.0
2018-May-14 04:00N 39°34' W 075°33'2 4.7
2018-May-14 03:30N 39°36' W 075°34'3 6.8
2018-May-14 03:00N 39°39' W 075°33'5 9.1
2018-May-14 02:29N 39°44' W 075°30'6 8.3
2018-May-14 01:42N 39°48' W 075°25'7 0.4
2018-May-13 08:07N 39°51' W 075°16'0 0.9
2018-May-13 07:45N 39°51' W 075°16'0 0.0
2018-May-13 07:30N 39°51' W 075°16'0 0.0
2018-May-13 06:56N 39°51' W 075°16'0 0.6
2018-May-13 06:28N 39°51' W 075°16'2 4.8
2018-May-13 06:00N 39°51' W 075°19'2 3.5
2018-May-13 05:25N 39°51' W 075°17'0 1.2
2018-May-13 05:00N 39°51' W 075°16'1 2.2
2018-May-13 04:30N 39°51' W 075°15'4 7.3
2018-May-13 04:00N 39°53' W 075°10'3 5.9
2018-May-13 03:30N 39°55' W 075°08'2 4.0
2018-May-13 02:55N 39°53' W 075°09'611.9
2018-May-13 02:25N 39°51' W 075°17'613.7
2018-May-13 01:57N 39°49' W 075°24'1 1.3
2018-May-13 01:31N 39°48' W 075°25'0 0.1
2018-May-13 00:58N 39°48' W 075°25'2 3.5
2018-May-13 00:30N 39°48' W 075°27'0 0.3
2018-May-13 00:00N 39°48' W 075°26'2 3.0
2018-May-12 23:29N 39°49' W 075°25'4 8.4
2018-May-12 22:59N 39°51' W 075°20'611.7
2018-May-12 22:29N 39°52' W 075°13'2 3.6
2018-May-12 22:00N 39°53' W 075°11'0 0.0
2018-May-12 21:30N 39°53' W 075°11'0 0.0
2018-May-12 21:00N 39°53' W 075°11'0 0.0
2018-May-12 20:30N 39°53' W 075°11'0 0.0
2018-May-12 20:01N 39°53' W 075°11'  

Dump ship's entire track history